Terminal Aerodrome Forecast
Issued by NWS Sterling, VA

Current Version | Previous Version | Graphics & Text | Print | Product List | Glossary On
Versions: 1 2 3 4 5 6 7 8 9 10 11 12 13 14 15 16 17 18
000
FTUS41 KLWX 281447 AAA
TAFMRB
TAF AMD
KMRB 281447Z 2815/2912 00000KT P6SM BKN120
     FM281700 00000KT P6SM -TSRA SCT050CB BKN090
     FM282100 00000KT P6SM TSRA OVC060CB
     FM290300 VRB03KT 3SM SHRA VCTS OVC050CB
     FM290600 VRB03KT 3SM SHRA OVC045=

USA.gov is the U.S. government's official web portal to all federal, state and local government web resources and services.